Time;durP1;ratioP1;P1;durP2;ratioP2;P2;SDS_P1;SDS_P2;PMS_P1;PMS_P2;Temp;Humidity;BMP_temperature;BMP_pressure;BME280_temperature;BME280_humidity;BME280_pressure;Samples;Min_cycle;Max_cycle;Signal;HPM_P1;HPM_P2
2023/04/10 05:29:31;;;;;;;17.65;11.02;;;5.30;99.70;;;;;;6445617;23;20503;-76
2023/04/10 05:32:32;;;;;;;16.38;10.75;;;5.10;99.60;;;;;;6223262;28;20061;-77
2023/04/10 05:35:35;;;;;;;17.05;10.07;;;5.10;99.90;;;;;;6212083;28;20506;-79
2023/04/10 05:38:36;;;;;;;17.05;10.38;;;5.40;99.90;;;;;;6218015;28;20045;-79
2023/04/10 05:41:38;;;;;;;17.30;10.73;;;5.50;99.80;;;;;;6209436;28;20043;-74
2023/04/10 05:44:46;;;;;;;16.30;10.30;;;5.20;99.90;;;;;;6217363;28;20061;-77
2023/04/10 05:47:48;;;;;;;18.05;11.00;;;5.20;99.90;;;;;;6223522;28;20056;-79
2023/04/10 05:50:51;;;;;;;16.23;10.65;;;5.40;99.90;;;;;;6223405;28;20057;-78
2023/04/10 05:53:52;;;;;;;17.17;10.23;;;5.50;99.90;;;;;;6227184;28;20085;-78
2023/04/10 05:56:55;;;;;;;16.33;10.88;;;5.50;99.90;;;;;;6230574;28;20475;-76
2023/04/10 05:59:58;;;;;;;16.77;10.57;;;5.60;99.90;;;;;;6229158;28;20049;-76
2023/04/10 06:03:01;;;;;;;16.83;10.68;;;5.60;99.90;;;;;;6236675;28;20057;-75
2023/04/10 06:06:04;;;;;;;17.00;10.18;;;5.80;99.60;;;;;;6225419;28;20042;-76
2023/04/10 06:09:06;;;;;;;17.65;10.70;;;5.80;99.40;;;;;;6225969;28;20058;-77
2023/04/10 06:12:08;;;;;;;16.88;10.38;;;5.90;99.50;;;;;;6225794;28;20406;-75
2023/04/10 06:15:11;;;;;;;14.65;9.85;;;5.90;99.90;;;;;;6208365;28;20073;-74
2023/04/10 06:18:14;;;;;;;17.05;11.00;;;6.10;98.90;;;;;;6220176;28;20045;-75
2023/04/10 06:21:16;;;;;;;15.93;10.48;;;6.30;98.90;;;;;;6233541;28;20414;-76
2023/04/10 06:24:18;;;;;;;16.95;10.35;;;6.30;99.80;;;;;;6220994;28;20041;-79
2023/04/10 06:27:20;;;;;;;15.48;10.55;;;6.10;99.90;;;;;;6216038;28;20043;-78
2023/04/10 06:30:23;;;;;;;15.15;9.90;;;6.30;99.90;;;;;;6217180;28;20046;-78
2023/04/10 06:33:25;;;;;;;14.95;9.70;;;6.60;99.50;;;;;;6221058;28;20114;-78
2023/04/10 06:36:27;;;;;;;16.10;10.38;;;6.60;98.70;;;;;;6223851;28;20402;-76
2023/04/10 06:39:30;;;;;;;16.77;10.55;;;6.80;98.70;;;;;;6227059;28;20050;-75
2023/04/10 06:42:32;;;;;;;14.43;9.70;;;6.60;99.10;;;;;;6207888;28;20051;-75
2023/04/10 06:45:35;;;;;;;16.05;10.25;;;6.80;98.30;;;;;;6207836;28;20038;-78
2023/04/10 06:48:37;;;;;;;15.40;10.82;;;6.80;98.30;;;;;;6220141;28;20049;-76
2023/04/10 06:51:39;;;;;;;16.25;10.75;;;6.90;98.20;;;;;;6223887;28;20487;-76
2023/04/10 06:54:40;;;;;;;15.43;9.93;;;6.80;98.40;;;;;;6223640;28;20124;-74
2023/04/10 06:57:42;;;;;;;15.73;10.27;;;6.90;98.30;;;;;;6217602;28;20046;-75
2023/04/10 07:00:50;;;;;;;16.08;10.30;;;6.80;98.40;;;;;;6202166;28;20058;-77
2023/04/10 07:03:52;;;;;;;15.18;10.20;;;7.00;98.20;;;;;;6214209;28;20053;-76
2023/04/10 07:06:54;;;;;;;14.35;9.60;;;7.00;98.70;;;;;;6225930;28;20042;-74
2023/04/10 07:09:56;;;;;;;13.73;9.05;;;7.20;97.00;;;;;;6226363;28;20065;-74
2023/04/10 07:12:58;;;;;;;13.13;9.10;;;7.20;97.40;;;;;;6210230;28;20060;-75
2023/04/10 07:16:02;;;;;;;14.35;9.57;;;7.30;98.10;;;;;;6215852;28;20049;-75
2023/04/10 07:19:04;;;;;;;14.88;9.88;;;7.50;97.30;;;;;;6212945;28;20061;-74
2023/04/10 07:22:06;;;;;;;13.73;8.80;;;7.60;97.00;;;;;;6218305;28;20077;-76
2023/04/10 07:25:09;;;;;;;13.65;9.07;;;7.60;96.90;;;;;;6203300;28;20046;-75
2023/04/10 07:28:11;;;;;;;15.00;9.63;;;7.80;96.70;;;;;;6212899;28;20153;-77
2023/04/10 07:31:16;;;;;;;15.15;9.18;;;7.90;96.30;;;;;;6224647;28;20053;-74
2023/04/10 07:34:18;;;;;;;14.60;9.38;;;8.00;96.30;;;;;;6226916;28;20112;-74
2023/04/10 07:37:20;;;;;;;14.13;9.27;;;8.10;96.10;;;;;;6225622;28;20046;-74
2023/04/10 07:40:22;;;;;;;14.45;9.15;;;8.20;96.10;;;;;;6224703;28;20057;-74
2023/04/10 07:43:24;;;;;;;13.65;9.30;;;8.30;96.20;;;;;;6225942;28;20110;-76
2023/04/10 07:46:27;;;;;;;12.65;8.23;;;8.50;95.80;;;;;;6216148;28;20475;-74
2023/04/10 07:49:29;;;;;;;12.75;8.70;;;8.60;95.30;;;;;;6202034;28;20065;-74
2023/04/10 07:52:31;;;;;;;15.27;8.40;;;8.70;94.90;;;;;;6201798;28;20077;-74
2023/04/10 07:55:37;;;;;;;13.20;9.10;;;8.90;94.50;;;;;;6214845;28;20056;-75
2023/04/10 07:58:39;;;;;;;12.82;8.60;;;9.00;93.90;;;;;;6217339;28;20511;-75
2023/04/10 08:01:42;;;;;;;11.65;8.05;;;9.10;93.60;;;;;;6220924;28;20035;-76
2023/04/10 08:04:45;;;;;;;12.93;8.13;;;9.20;93.20;;;;;;6243494;28;20074;-74
2023/04/10 08:07:46;;;;;;;10.90;7.72;;;9.40;93.20;;;;;;6249504;28;20058;-76
2023/04/10 08:10:49;;;;;;;12.07;7.95;;;9.50;93.30;;;;;;6243520;28;20102;-74
2023/04/10 08:13:51;;;;;;;11.88;7.38;;;9.60;92.70;;;;;;6215402;28;20042;-74
2023/04/10 08:16:55;;;;;;;9.93;6.93;;;9.70;92.50;;;;;;6214818;28;20046;-75
2023/04/10 08:19:57;;;;;;;8.77;6.00;;;9.90;92.00;;;;;;6210771;28;20056;-75
2023/04/10 08:22:58;;;;;;;7.05;4.88;;;10.00;90.50;;;;;;6210317;28;20057;-75
2023/04/10 08:26:00;;;;;;;7.13;4.72;;;10.30;86.50;;;;;;6219362;28;20109;-76
2023/04/10 08:29:04;;;;;;;6.05;4.00;;;10.40;85.70;;;;;;6222763;28;20410;-76
2023/04/10 08:32:07;;;;;;;5.90;3.72;;;10.60;82.30;;;;;;6222609;28;20057;-77
2023/04/10 08:35:09;;;;;;;7.22;4.50;;;10.70;81.00;;;;;;6211206;28;20045;-73
2023/04/10 08:38:11;;;;;;;5.65;3.72;;;10.90;79.00;;;;;;6218870;28;20064;-74
2023/04/10 08:41:19;;;;;;;5.35;3.38;;;11.20;78.30;;;;;;6221797;28;20058;-74
2023/04/10 08:44:21;;;;;;;5.82;3.30;;;11.30;76.50;;;;;;6220801;28;20077;-74
2023/04/10 08:47:28;;;;;;;4.95;2.95;;;11.50;76.00;;;;;;6216805;28;20050;-77
2023/04/10 08:50:34;;;;;;;5.30;3.30;;;11.50;74.10;;;;;;6223309;28;20046;-77
2023/04/10 08:53:41;;;;;;;5.10;3.00;;;11.80;76.50;;;;;;6235490;28;20084;-79
2023/04/10 08:56:47;;;;;;;4.55;2.55;;;11.80;70.70;;;;;;6249030;28;20056;-77
2023/04/10 08:59:50;;;;;;;4.15;2.50;;;11.90;70.70;;;;;;6245136;28;20137;-76
2023/04/10 09:02:56;;;;;;;4.28;2.47;;;11.90;68.80;;;;;;6221613;28;20046;-78
2023/04/10 09:06:03;;;;;;;4.45;2.53;;;12.10;67.00;;;;;;6222205;28;20077;-76
2023/04/10 09:09:06;;;;;;;3.85;2.42;;;12.20;66.70;;;;;;6240440;28;20144;-77
2023/04/10 09:12:08;;;;;;;4.40;2.45;;;12.30;65.40;;;;;;6228287;28;20053;-75
2023/04/10 09:15:10;;;;;;;3.70;2.20;;;12.40;65.40;;;;;;6221285;28;20048;-76
2023/04/10 09:18:13;;;;;;;4.00;2.28;;;12.50;65.60;;;;;;6232908;28;20049;-75
2023/04/10 09:21:20;;;;;;;3.63;2.22;;;12.70;62.50;;;;;;6215425;28;20057;-74
2023/04/10 09:24:22;;;;;;;3.60;2.08;;;12.80;63.50;;;;;;6213614;28;20046;-77
2023/04/10 09:27:31;;;;;;;3.35;1.88;;;12.90;61.70;;;;;;6220080;28;20046;-79
2023/04/10 09:30:38;;;;;;;4.13;2.30;;;13.00;61.50;;;;;;6211595;28;20058;-75
2023/04/10 09:33:45;;;;;;;4.93;2.15;;;13.00;60.60;;;;;;6218187;28;20128;-79
2023/04/10 09:36:54;;;;;;;3.78;2.05;;;13.10;59.70;;;;;;6213832;28;20088;-77
2023/04/10 09:39:56;;;;;;;3.30;1.90;;;13.10;59.50;;;;;;6224686;28;20046;-80
2023/04/10 09:42:58;;;;;;;3.80;2.20;;;13.30;59.00;;;;;;6226634;28;20058;-81
2023/04/10 09:46:00;;;;;;;3.47;1.90;;;13.30;59.00;;;;;;6229062;28;20049;-79
2023/04/10 09:49:06;;;;;;;3.60;2.20;;;13.40;57.90;;;;;;6229216;28;20050;-78
2023/04/10 09:52:22;;;;;;;4.50;2.08;;;13.50;57.60;;;;;;6229420;28;20050;-77
2023/04/10 09:55:24;;;;;;;3.67;1.95;;;13.60;57.70;;;;;;6229593;28;20107;-79
2023/04/10 09:58:26;;;;;;;3.20;1.90;;;13.70;56.20;;;;;;6229622;28;20045;-78
2023/04/10 10:01:29;;;;;;;3.57;1.90;;;13.80;56.50;;;;;;6229480;28;20052;-79
2023/04/10 10:04:33;;;;;;;3.38;1.80;;;13.80;56.50;;;;;;6239161;28;20471;-74
2023/04/10 10:07:36;;;;;;;4.15;2.30;;;13.90;55.50;;;;;;6238358;28;20042;-73
2023/04/10 10:10:45;;;;;;;4.28;1.85;;;13.90;54.60;;;;;;6229296;28;20080;-75
2023/04/10 10:13:57;;;;;;;3.97;1.88;;;14.00;54.30;;;;;;6228218;28;20404;-76
2023/04/10 10:17:06;;;;;;;3.10;1.77;;;14.10;54.20;;;;;;6234747;28;20060;-75
2023/04/10 10:20:11;;;;;;;3.15;1.92;;;14.20;54.30;;;;;;6233675;28;20053;-73
2023/04/10 10:23:16;;;;;;;2.97;1.58;;;14.40;54.30;;;;;;6246249;28;20399;-80
2023/04/10 10:26:19;;;;;;;3.75;1.98;;;14.50;53.60;;;;;;6229634;28;20495;-79
2023/04/10 10:29:24;;;;;;;3.83;1.98;;;14.60;53.60;;;;;;6228246;28;20070;-77
2023/04/10 10:32:27;;;;;;;3.10;1.70;;;14.70;53.40;;;;;;6228775;28;20042;-80
2023/04/10 10:35:31;;;;;;;3.22;1.50;;;14.90;52.90;;;;;;6228127;28;20057;-76
2023/04/10 10:38:34;;;;;;;2.90;1.50;;;15.00;50.10;;;;;;6228299;28;20042;-79
2023/04/10 10:41:43;;;;;;;3.80;1.70;;;15.20;51.00;;;;;;6228053;28;20054;-78
2023/04/10 10:44:52;;;;;;;3.30;1.77;;;15.20;50.30;;;;;;6227994;28;20411;-80
2023/04/10 10:47:54;;;;;;;3.03;1.60;;;15.40;50.00;;;;;;6227589;28;20396;-80
2023/04/10 10:51:02;;;;;;;2.97;1.50;;;15.50;49.80;;;;;;6226830;28;20518;-76
2023/04/10 10:54:05;;;;;;;3.65;1.80;;;15.50;48.60;;;;;;6210444;28;20049;-78
2023/04/10 10:57:46;;;;;;;2.65;1.30;;;15.80;47.30;;;;;;6228057;28;20065;-80
2023/04/10 11:01:19;;;;;;;2.60;1.20;;;15.90;47.20;;;;;;6226401;28;20049;-78
2023/04/10 11:04:43;;;;;;;3.08;1.50;;;16.10;48.20;;;;;;6227689;28;20050;-75
2023/04/10 11:08:08;;;;;;;3.22;1.50;;;16.10;47.30;;;;;;6227798;28;20108;-77
2023/04/10 11:11:16;;;;;;;3.28;1.40;;;16.00;46.90;;;;;;6227429;28;20107;-79
2023/04/10 11:14:20;;;;;;;2.95;1.48;;;16.00;48.50;;;;;;6226893;28;20046;-79
2023/04/10 11:17:50;;;;;;;3.15;1.50;;;15.90;47.60;;;;;;6217947;28;20057;-75
2023/04/10 11:21:10;;;;;;;2.97;1.48;;;16.00;46.50;;;;;;6216056;28;20415;-76
2023/04/10 11:24:12;;;;;;;3.20;1.60;;;16.10;47.50;;;;;;6222704;28;20430;-76
2023/04/10 11:27:43;;;;;;;2.95;1.48;;;16.00;47.70;;;;;;6226292;28;20046;-76
2023/04/10 11:30:46;;;;;;;3.15;1.65;;;16.10;47.70;;;;;;6225373;28;20126;-74
2023/04/10 11:33:50;;;;;;;2.33;1.20;;;16.20;48.40;;;;;;6222172;28;20054;-76
2023/04/10 11:36:53;;;;;;;2.85;1.40;;;16.30;45.90;;;;;;6228390;28;20111;-75
2023/04/10 11:40:05;;;;;;;2.70;1.20;;;16.30;47.70;;;;;;6239277;28;20046;-76
2023/04/10 11:43:13;;;;;;;2.22;1.02;;;16.40;48.00;;;;;;6233415;28;20042;-75
2023/04/10 11:46:17;;;;;;;2.42;1.15;;;16.40;44.70;;;;;;6225849;28;20479;-73
2023/04/10 11:49:21;;;;;;;2.25;1.10;;;16.50;43.10;;;;;;6237699;28;20046;-77
2023/04/10 11:52:25;;;;;;;3.15;1.60;;;16.50;45.50;;;;;;6231411;28;20107;-74
2023/04/10 11:55:37;;;;;;;7.38;1.67;;;16.80;45.70;;;;;;6217072;28;20053;-76
2023/04/10 11:58:39;;;;;;;3.13;1.40;;;17.00;58.20;;;;;;6209861;28;20050;-76
2023/04/10 12:01:43;;;;;;;2.60;1.20;;;17.10;46.10;;;;;;6200403;28;20050;-79
2023/04/10 12:04:45;;;;;;;3.28;1.13;;;17.00;43.40;;;;;;6209314;28;20399;-75
2023/04/10 12:07:48;;;;;;;3.10;1.40;;;17.10;43.60;;;;;;6224287;28;20074;-76
2023/04/10 12:10:50;;;;;;;;;;;17.10;44.70;;;;;;6206216;28;20503;-73
2023/04/10 12:13:53;;;;;;;3.20;1.40;;;17.30;46.00;;;;;;6211595;28;19921;-75
2023/04/10 12:16:57;;;;;;;3.25;1.50;;;17.50;46.30;;;;;;6225021;28;20046;-73
2023/04/10 12:19:59;;;;;;;;;;;17.70;46.30;;;;;;6213580;28;20129;-75
2023/04/10 12:23:02;;;;;;;3.33;1.40;;;17.60;44.20;;;;;;6215415;28;20371;-74
2023/04/10 12:26:13;;;;;;;2.67;1.50;;;18.00;44.00;;;;;;6224262;28;20506;-80
2023/04/10 12:29:14;;;;;;;2.88;1.40;;;18.20;45.10;;;;;;6218862;28;20055;-78
2023/04/10 12:32:18;;;;;;;2.92;1.67;;;18.10;42.50;;;;;;6205772;28;20052;-77
2023/04/10 12:35:20;;;;;;;3.65;1.70;;;18.20;42.60;;;;;;6224652;28;20042;-77
2023/04/10 12:38:40;;;;;;;2.63;1.50;;;18.60;44.60;;;;;;6225068;28;20054;-79
2023/04/10 12:41:42;;;;;;;2.85;1.55;;;18.80;43.30;;;;;;6208281;28;20070;-80
2023/04/10 12:44:52;;;;;;;2.85;1.40;;;18.90;44.10;;;;;;6224905;28;20049;-78
2023/04/10 12:47:57;;;;;;;2.60;1.40;;;18.90;43.50;;;;;;6225241;28;20066;-78
2023/04/10 12:50:59;;;;;;;3.63;1.33;;;19.00;42.70;;;;;;6204825;28;20065;-80
2023/04/10 12:54:01;;;;;;;3.43;1.47;;;19.30;42.40;;;;;;6200484;28;20518;-80
2023/04/10 12:57:03;;;;;;;3.00;1.60;;;19.20;41.70;;;;;;6201299;28;20050;-79
2023/04/10 13:00:08;;;;;;;3.00;1.50;;;19.20;42.20;;;;;;6224387;28;20479;-79
2023/04/10 13:03:11;;;;;;;2.55;1.30;;;19.60;42.30;;;;;;6224820;28;20406;-79
2023/04/10 13:06:13;;;;;;;2.67;1.17;;;19.50;41.20;;;;;;6220785;28;20057;-76
2023/04/10 13:09:16;;;;;;;4.22;2.22;;;19.60;40.10;;;;;;6207879;28;20076;-74
2023/04/10 13:12:18;;;;;;;4.13;2.25;;;19.60;39.40;;;;;;6225318;28;20141;-76
2023/04/10 13:15:20;;;;;;;8.65;4.80;;;19.90;39.10;;;;;;6223652;28;20046;-76
2023/04/10 13:18:23;;;;;;;2.67;1.50;;;20.10;38.50;;;;;;6224292;28;20046;-74
2023/04/10 13:21:27;;;;;;;2.83;1.30;;;20.00;38.40;;;;;;6227740;28;20046;-77
2023/04/10 13:24:29;;;;;;;3.13;1.50;;;20.10;39.30;;;;;;6225286;28;20533;-80
2023/04/10 13:27:31;;;;;;;3.20;1.30;;;20.20;40.00;;;;;;6222458;28;20487;-80
2023/04/10 13:30:33;;;;;;;3.08;1.60;;;19.90;40.10;;;;;;6220417;28;20046;-80
2023/04/10 13:33:37;;;;;;;3.25;1.65;;;20.10;40.50;;;;;;6200306;28;20043;-79
2023/04/10 13:36:38;;;;;;;3.28;1.90;;;20.10;41.40;;;;;;6208524;28;20054;-80
2023/04/10 13:39:42;;;;;;;2.58;1.48;;;20.20;40.90;;;;;;6214685;28;20049;-81
2023/04/10 13:42:44;;;;;;;3.40;1.40;;;20.20;40.60;;;;;;6223763;28;20088;-79
2023/04/10 13:45:46;;;;;;;2.83;1.52;;;20.30;39.00;;;;;;6215390;28;20400;-80
2023/04/10 13:48:49;;;;;;;2.65;1.35;;;20.60;39.30;;;;;;6219923;28;20042;-79
2023/04/10 13:51:50;;;;;;;2.70;1.30;;;20.50;39.10;;;;;;6222839;28;20376;-79
2023/04/10 13:54:52;;;;;;;2.75;1.27;;;20.60;40.40;;;;;;6209202;28;20057;-78
2023/04/10 13:57:54;;;;;;;3.10;1.40;;;20.40;41.30;;;;;;6210008;28;20038;-78
2023/04/10 14:00:56;;;;;;;2.58;1.42;;;20.70;40.50;;;;;;6222466;28;20068;-79
2023/04/10 14:03:59;;;;;;;2.83;1.48;;;20.50;39.80;;;;;;6223233;28;20061;-79
2023/04/10 14:07:01;;;;;;;;;;;20.60;40.10;;;;;;6224650;28;20092;-78
2023/04/10 14:10:04;;;;;;;3.43;1.60;;;20.70;39.20;;;;;;6223669;28;19928;-77
2023/04/10 14:13:06;;;;;;;3.13;1.30;;;20.60;39.20;;;;;;6222435;28;20042;-78
2023/04/10 14:16:08;;;;;;;2.95;1.58;;;20.20;39.60;;;;;;6222232;28;20046;-78
2023/04/10 14:19:11;;;;;;;2.90;1.50;;;20.50;40.70;;;;;;6223512;28;20049;-78
2023/04/10 14:22:13;;;;;;;2.88;1.45;;;20.70;40.80;;;;;;6223130;28;20432;-75
2023/04/10 14:25:15;;;;;;;3.50;1.70;;;21.00;41.90;;;;;;6225704;28;20046;-76
2023/04/10 14:28:17;;;;;;;3.60;1.70;;;20.60;40.60;;;;;;6227296;28;20060;-79
2023/04/10 14:31:20;;;;;;;3.45;1.70;;;20.50;40.80;;;;;;6228190;28;20053;-75
2023/04/10 14:34:23;;;;;;;2.75;1.40;;;20.40;41.60;;;;;;6227885;28;20049;-79
2023/04/10 14:37:25;;;;;;;3.40;1.80;;;20.30;41.50;;;;;;6210394;28;20052;-78
2023/04/10 14:40:26;;;;;;;2.83;1.50;;;20.30;41.60;;;;;;6228231;28;20410;-80
2023/04/10 14:43:28;;;;;;;2.80;1.50;;;20.20;42.10;;;;;;6227855;28;20050;-80
2023/04/10 14:46:30;;;;;;;3.17;1.60;;;20.40;42.10;;;;;;6228009;28;20054;-77
2023/04/10 14:49:33;;;;;;;2.88;1.58;;;20.70;42.00;;;;;;6235310;28;20037;-77
2023/04/10 14:52:35;;;;;;;2.88;1.60;;;20.70;41.30;;;;;;6253789;28;20050;-76
2023/04/10 14:55:37;;;;;;;3.20;1.80;;;20.80;41.80;;;;;;6253520;28;20102;-75
2023/04/10 14:58:39;;;;;;;3.13;1.55;;;20.80;41.90;;;;;;6245076;28;20050;-74
2023/04/10 15:01:41;;;;;;;3.10;1.70;;;21.10;42.40;;;;;;6224832;28;20042;-73
2023/04/10 15:04:44;;;;;;;2.85;1.58;;;21.40;41.60;;;;;;6224988;28;20045;-75
2023/04/10 15:07:46;;;;;;;4.70;1.60;;;21.80;41.00;;;;;;6231071;28;20085;-77
2023/04/10 15:10:49;;;;;;;4.03;1.80;;;22.70;41.30;;;;;;6218910;28;20050;-76
2023/04/10 15:13:51;;;;;;;3.08;1.60;;;23.30;39.20;;;;;;6220984;28;20045;-77
2023/04/10 15:16:55;;;;;;;3.85;1.55;;;23.50;39.00;;;;;;6216500;28;20148;-76
2023/04/10 15:19:58;;;;;;;2.95;1.65;;;23.80;38.20;;;;;;6207280;28;20054;-77
2023/04/10 15:23:01;;;;;;;3.10;1.60;;;23.70;39.00;;;;;;6214632;28;20058;-81
2023/04/10 15:26:03;;;;;;;3.05;1.60;;;23.20;38.90;;;;;;6223316;28;20427;-79
2023/04/10 15:29:05;;;;;;;2.88;1.48;;;22.80;40.00;;;;;;6211515;28;20054;-81
2023/04/10 15:32:07;;;;;;;3.20;1.60;;;22.80;40.60;;;;;;6200140;28;20058;-79
2023/04/10 15:35:12;;;;;;;2.78;1.40;;;23.10;39.90;;;;;;6219910;28;20048;-80
2023/04/10 15:38:14;;;;;;;2.50;1.45;;;22.70;39.70;;;;;;6222411;28;20061;-76
2023/04/10 15:41:16;;;;;;;2.38;1.17;;;22.30;40.40;;;;;;6202188;28;20419;-79
2023/04/10 15:44:19;;;;;;;2.80;1.50;;;21.80;41.00;;;;;;6199115;28;20050;-80
2023/04/10 15:47:21;;;;;;;3.63;1.38;;;21.60;40.90;;;;;;6220057;28;20060;-80
2023/04/10 15:50:24;;;;;;;3.40;1.40;;;21.50;41.10;;;;;;6216310;28;20085;-81
2023/04/10 15:53:26;;;;;;;;;;;21.20;40.80;;;;;;6197697;28;20050;-80
2023/04/10 15:56:28;;;;;;;2.72;1.33;;;20.90;41.20;;;;;;6213763;28;19929;-79
2023/04/10 15:59:29;;;;;;;2.63;1.40;;;20.70;41.30;;;;;;6222970;28;20053;-81
2023/04/10 16:02:31;;;;;;;2.88;1.30;;;20.50;41.50;;;;;;6200438;28;20046;-79
2023/04/10 16:05:34;;;;;;;3.00;1.50;;;20.30;42.60;;;;;;6204566;28;20423;-79
2023/04/10 16:08:37;;;;;;;2.60;1.30;;;19.90;42.30;;;;;;6214105;28;20042;-76
2023/04/10 16:11:39;;;;;;;2.70;1.50;;;19.80;43.00;;;;;;6207447;28;20057;-77
2023/04/10 16:14:41;;;;;;;2.45;1.23;;;19.70;43.20;;;;;;6209563;28;20050;-77
2023/04/10 16:17:44;;;;;;;3.10;1.50;;;19.60;43.50;;;;;;6210864;28;20049;-76
2023/04/10 16:20:48;;;;;;;3.88;1.80;;;19.20;43.60;;;;;;6208158;28;20054;-78
2023/04/10 16:23:49;;;;;;;4.05;1.95;;;19.20;43.80;;;;;;6210652;28;20046;-80
2023/04/10 16:26:53;;;;;;;3.03;1.50;;;19.20;44.60;;;;;;6216224;28;20061;-76
2023/04/10 16:29:55;;;;;;;3.30;1.30;;;18.90;44.50;;;;;;6220715;28;20057;-79
2023/04/10 16:32:57;;;;;;;3.55;1.27;;;18.80;44.80;;;;;;6218899;28;20407;-76
2023/04/10 16:36:03;;;;;;;2.55;1.20;;;18.70;44.50;;;;;;6219550;28;20049;-78
2023/04/10 16:39:06;;;;;;;3.17;1.10;;;18.50;44.20;;;;;;6215391;28;20049;-79
2023/04/10 16:42:08;;;;;;;2.65;1.40;;;18.50;45.00;;;;;;6219355;28;20052;-79
2023/04/10 16:45:10;;;;;;;3.20;1.40;;;18.40;45.10;;;;;;6218820;28;20053;-80
2023/04/10 16:48:12;;;;;;;2.50;1.30;;;18.40;45.30;;;;;;6216979;28;20076;-79
2023/04/10 16:51:19;;;;;;;2.40;1.13;;;18.30;45.20;;;;;;6217964;28;20057;-79
2023/04/10 16:54:21;;;;;;;2.60;1.30;;;18.40;45.70;;;;;;6217757;28;20053;-76
2023/04/10 16:57:22;;;;;;;2.67;1.20;;;18.40;45.10;;;;;;6212592;28;20057;-76
2023/04/10 17:00:24;;;;;;;2.65;1.20;;;18.40;45.10;;;;;;6198490;28;20054;-76
2023/04/10 17:03:28;;;;;;;2.17;1.10;;;18.30;45.30;;;;;;6199827;28;20061;-77
2023/04/10 17:06:31;;;;;;;2.40;1.10;;;18.30;45.00;;;;;;6210486;28;20050;-80
2023/04/10 17:09:33;;;;;;;3.30;1.30;;;18.20;45.40;;;;;;6220350;28;20042;-76
2023/04/10 17:12:37;;;;;;;3.35;1.95;;;18.10;45.60;;;;;;6202612;28;20046;-78
2023/04/10 17:15:39;;;;;;;2.88;1.50;;;18.00;45.90;;;;;;6228170;28;20048;-74
2023/04/10 17:18:45;;;;;;;3.13;1.27;;;18.00;45.70;;;;;;6225608;28;20056;-79
2023/04/10 17:21:48;;;;;;;2.97;1.30;;;17.80;45.70;;;;;;6218123;28;20374;-75
2023/04/10 17:24:50;;;;;;;2.67;1.35;;;17.80;44.90;;;;;;6214376;28;20054;-75
2023/04/10 17:27:52;;;;;;;3.42;1.60;;;17.70;44.70;;;;;;6218797;28;20058;-80
2023/04/10 17:30:54;;;;;;;3.40;1.40;;;17.60;45.40;;;;;;6212348;28;20046;-77
2023/04/10 17:33:57;;;;;;;2.47;1.17;;;17.50;45.40;;;;;;6217726;28;20502;-79
2023/04/10 17:37:00;;;;;;;3.03;1.10;;;17.50;45.30;;;;;;6217730;28;20057;-77
2023/04/10 17:40:02;;;;;;;;;;;17.40;47.50;;;;;;6212431;28;20069;-76
2023/04/10 17:43:04;;;;;;;2.45;1.10;;;17.30;45.20;;;;;;6216024;28;19925;-78
2023/04/10 17:46:06;;;;;;;3.95;0.95;;;17.30;45.00;;;;;;6220154;28;20475;-79
2023/04/10 17:49:08;;;;;;;2.50;1.08;;;17.20;44.70;;;;;;6213580;28;20053;-78
2023/04/10 17:52:11;;;;;;;1.95;0.95;;;17.10;44.20;;;;;;6207210;28;20062;-78
2023/04/10 17:55:17;;;;;;;2.50;1.00;;;17.00;44.60;;;;;;6210154;28;20693;-78
2023/04/10 17:58:19;;;;;;;2.63;1.10;;;17.00;44.20;;;;;;6203819;28;20050;-76
2023/04/10 18:01:22;;;;;;;3.50;1.27;;;16.90;44.50;;;;;;6222470;28;20054;-76
2023/04/10 18:04:24;;;;;;;2.15;1.00;;;16.80;44.50;;;;;;6224884;28;20049;-77
2023/04/10 18:07:27;;;;;;;2.15;0.95;;;16.80;44.90;;;;;;6224702;28;20042;-75
2023/04/10 18:10:29;;;;;;;2.88;0.90;;;16.80;44.60;;;;;;6221134;28;20053;-78
2023/04/10 18:13:34;;;;;;;2.30;1.10;;;16.70;44.90;;;;;;6224223;28;20057;-76
2023/04/10 18:16:36;;;;;;;2.28;0.90;;;16.60;45.10;;;;;;6219045;28;20407;-76
2023/04/10 18:19:38;;;;;;;2.30;1.00;;;16.60;45.40;;;;;;6224540;28;20065;-74
2023/04/10 18:22:41;;;;;;;2.40;1.05;;;16.60;45.10;;;;;;6243853;28;20054;-76
2023/04/10 18:25:53;;;;;;;4.18;1.30;;;16.60;45.00;;;;;;6238833;28;20048;-77
2023/04/10 18:28:55;;;;;;;2.22;0.95;;;16.50;45.60;;;;;;6220917;28;20046;-78
2023/04/10 18:31:56;;;;;;;3.80;1.65;;;16.50;45.70;;;;;;6206789;28;20062;-78
2023/04/10 18:34:58;;;;;;;2.70;1.30;;;16.40;44.90;;;;;;6225483;28;20045;-77
2023/04/10 18:38:02;;;;;;;2.15;1.10;;;16.40;45.50;;;;;;6225006;28;20264;-75
2023/04/10 18:41:04;;;;;;;2.63;1.10;;;16.30;45.50;;;;;;6212146;28;20050;-75
2023/04/10 18:44:06;;;;;;;3.13;1.40;;;16.30;45.30;;;;;;6221559;28;20056;-77
2023/04/10 18:47:09;;;;;;;4.00;1.70;;;16.30;45.60;;;;;;6223063;28;20064;-77
2023/04/10 18:50:11;;;;;;;3.13;1.30;;;16.30;45.70;;;;;;6222162;28;20133;-77
2023/04/10 18:53:14;;;;;;;3.92;1.70;;;16.30;45.10;;;;;;6222268;28;20061;-76
2023/04/10 18:56:16;;;;;;;3.33;1.58;;;16.30;45.40;;;;;;6231567;28;20049;-77
2023/04/10 18:59:18;;;;;;;3.40;1.55;;;16.30;45.40;;;;;;6234438;28;20057;-75
2023/04/10 19:02:20;;;;;;;3.65;1.40;;;16.30;45.70;;;;;;6225092;28;20046;-76
2023/04/10 19:05:22;;;;;;;2.88;1.40;;;16.30;46.10;;;;;;6216539;28;20042;-78
2023/04/10 19:08:25;;;;;;;2.88;1.40;;;16.20;47.00;;;;;;6219910;28;20057;-77
2023/04/10 19:11:27;;;;;;;3.10;1.40;;;16.20;47.40;;;;;;6224386;28;20137;-76
2023/04/10 19:14:29;;;;;;;2.85;1.40;;;16.20;47.80;;;;;;6218242;28;20049;-78
2023/04/10 19:17:31;;;;;;;3.22;1.50;;;16.20;49.40;;;;;;6222076;28;20073;-74
2023/04/10 19:20:33;;;;;;;4.65;1.70;;;16.20;49.50;;;;;;6200091;28;20046;-78
2023/04/10 19:23:36;;;;;;;4.43;2.00;;;16.20;50.10;;;;;;6205180;28;20661;-73
2023/04/10 19:26:38;;;;;;;2.90;1.60;;;16.20;50.30;;;;;;6222384;28;20049;-75
2023/04/10 19:29:40;;;;;;;3.60;1.90;;;16.20;50.70;;;;;;6223340;28;20058;-77
2023/04/10 19:32:43;;;;;;;3.22;1.73;;;16.20;51.10;;;;;;6217434;28;20046;-76
2023/04/10 19:35:45;;;;;;;4.53;2.00;;;16.20;51.00;;;;;;6224257;28;20050;-76
2023/04/10 19:38:49;;;;;;;4.45;1.80;;;16.20;51.40;;;;;;6212137;28;20312;-77
2023/04/10 19:41:51;;;;;;;17.85;9.70;;;16.10;51.60;;;;;;6199655;28;20159;-75
2023/04/10 19:44:53;;;;;;;4.68;2.80;;;16.10;52.10;;;;;;6198727;28;20130;-75
2023/04/10 19:47:56;;;;;;;4.10;2.03;;;16.10;52.20;;;;;;6211278;28;20049;-76
2023/04/10 19:51:04;;;;;;;3.40;1.75;;;16.00;52.50;;;;;;6220129;28;20492;-78
2023/04/10 19:54:07;;;;;;;3.40;1.90;;;16.10;52.60;;;;;;6221285;28;20069;-81
2023/04/10 19:57:09;;;;;;;3.22;1.75;;;16.10;52.60;;;;;;6220456;28;20042;-75
2023/04/10 20:00:13;;;;;;;3.35;1.77;;;16.00;52.90;;;;;;6220619;28;20113;-77
2023/04/10 20:03:25;;;;;;;4.85;2.10;;;16.00;52.90;;;;;;6227131;28;20046;-79
2023/04/10 20:06:27;;;;;;;3.50;1.70;;;16.00;53.00;;;;;;6199759;28;20054;-79
2023/04/10 20:09:30;;;;;;;3.45;1.88;;;16.00;53.30;;;;;;6214129;28;20057;-78
2023/04/10 20:12:33;;;;;;;3.28;1.73;;;15.90;53.90;;;;;;6222275;28;20061;-79
2023/04/10 20:15:35;;;;;;;3.45;1.88;;;15.80;54.50;;;;;;6222534;28;20626;-75
2023/04/10 20:18:38;;;;;;;3.35;1.88;;;15.70;55.10;;;;;;6219717;28;20050;-81
2023/04/10 20:21:40;;;;;;;3.42;1.90;;;15.70;54.90;;;;;;6190790;28;20050;-79
2023/04/10 20:24:43;;;;;;;3.10;1.77;;;15.70;55.10;;;;;;6211590;28;20050;-74
2023/04/10 20:27:45;;;;;;;3.88;1.90;;;15.60;54.90;;;;;;6226242;28;20069;-77
2023/04/10 20:30:47;;;;;;;3.90;2.10;;;15.60;55.00;;;;;;6233479;28;20050;-74
2023/04/10 20:33:49;;;;;;;3.92;1.98;;;15.50;55.00;;;;;;6226113;28;20061;-75
2023/04/10 20:36:51;;;;;;;3.70;2.00;;;15.50;54.90;;;;;;6222578;28;20046;-73
2023/04/10 20:39:54;;;;;;;4.40;2.40;;;15.50;55.00;;;;;;6223615;28;20050;-76
2023/04/10 20:42:56;;;;;;;3.78;2.13;;;15.50;55.30;;;;;;6223515;28;20407;-75
2023/04/10 20:46:03;;;;;;;4.55;2.20;;;15.40;55.60;;;;;;6205454;28;20050;-75
2023/04/10 20:49:05;;;;;;;5.15;2.17;;;15.40;55.90;;;;;;6203285;28;20045;-78
2023/04/10 20:52:07;;;;;;;4.22;2.22;;;15.40;56.40;;;;;;6229768;28;20054;-78
2023/04/10 20:55:11;;;;;;;4.57;2.45;;;15.40;57.20;;;;;;6243920;28;20050;-76
2023/04/10 20:58:13;;;;;;;4.53;2.30;;;15.30;57.50;;;;;;6241971;28;20109;-77
2023/04/10 21:01:15;;;;;;;5.80;2.40;;;15.30;58.30;;;;;;6225969;28;20474;-75
2023/04/10 21:04:16;;;;;;;4.55;2.13;;;15.30;58.80;;;;;;6221279;28;20056;-75
2023/04/10 21:07:18;;;;;;;4.25;2.55;;;15.30;59.30;;;;;;6214202;28;20108;-75
2023/04/10 21:10:22;;;;;;;4.13;2.58;;;15.30;59.70;;;;;;6222639;28;20504;-77
2023/04/10 21:13:24;;;;;;;4.40;2.35;;;15.30;60.00;;;;;;6222490;28;20053;-74
2023/04/10 21:16:26;;;;;;;3.70;2.30;;;15.20;60.20;;;;;;6223348;28;20133;-74
2023/04/10 21:19:27;;;;;;;4.10;2.35;;;15.20;60.70;;;;;;6226318;28;20827;-78
2023/04/10 21:22:29;;;;;;;4.40;2.60;;;15.20;60.90;;;;;;6222659;28;20062;-78
2023/04/10 21:25:34;;;;;;;4.07;2.60;;;15.20;61.30;;;;;;6223026;28;20065;-79